createdAt,value
2017-07-01T00:00:49.988Z,15.19
2017-07-01T00:01:49.988Z,15.11
2017-07-01T00:02:49.999Z,15.14
2017-07-01T00:03:49.990Z,14.99
2017-07-01T00:04:49.986Z,15.06
2017-07-01T00:05:49.966Z,15.01
2017-07-01T00:06:49.967Z,15.09
2017-07-01T00:07:49.961Z,15.06
2017-07-01T00:08:49.975Z,15.07
2017-07-01T00:09:49.946Z,15.03
2017-07-01T00:10:49.965Z,15.09
2017-07-01T00:11:49.945Z,15.16
2017-07-01T00:12:49.947Z,15.14
2017-07-01T00:13:49.920Z,15.16
2017-07-01T00:14:49.935Z,15.19
2017-07-01T00:15:49.916Z,15.21
2017-07-01T00:16:49.903Z,15.23
2017-07-01T00:17:49.917Z,15.25
2017-07-01T00:18:49.908Z,15.25
2017-07-01T00:19:49.901Z,15.21
2017-07-01T00:20:49.909Z,15.25
2017-07-01T00:21:49.880Z,15.34
2017-07-01T00:22:49.891Z,15.34
2017-07-01T00:23:49.874Z,15.28
2017-07-01T00:24:49.891Z,15.31
2017-07-01T00:25:49.866Z,15.34
2017-07-01T00:26:49.888Z,15.34
2017-07-01T00:27:49.861Z,15.28
2017-07-01T00:28:49.870Z,15.36
2017-07-01T00:29:49.851Z,15.31
2017-07-01T00:30:49.850Z,15.32
2017-07-01T00:31:49.539Z,15.31
2017-07-01T00:32:49.852Z,15.36
2017-07-01T00:33:49.848Z,15.35
2017-07-01T00:34:49.836Z,15.29
2017-07-01T00:35:49.831Z,15.23
2017-07-01T00:36:49.812Z,15.28
2017-07-01T00:37:49.834Z,15.25
2017-07-01T00:38:49.816Z,15.23
2017-07-01T00:39:49.506Z,15.2
2017-07-01T00:40:49.813Z,15.17
2017-07-01T00:41:49.795Z,15.27
2017-07-01T00:42:49.805Z,15.2
2017-07-01T00:43:49.498Z,15.14
2017-07-01T00:44:49.797Z,15.16
2017-07-01T00:45:49.769Z,15.07
2017-07-01T00:46:49.769Z,15.03
2017-07-01T00:47:49.778Z,15.06
2017-07-01T00:48:49.784Z,15.09
2017-07-01T00:49:49.472Z,15.01
2017-07-01T00:50:49.754Z,15.03
2017-07-01T00:51:49.758Z,15.02
2017-07-01T00:52:49.762Z,15.06
2017-07-01T00:53:49.437Z,15.03
2017-07-01T00:54:49.741Z,15.09
2017-07-01T00:55:49.719Z,15.02
2017-07-01T00:56:49.739Z,14.96
2017-07-01T00:57:49.710Z,15.02
2017-07-01T00:58:49.722Z,15.03
2017-07-01T00:59:49.714Z,14.95
2017-07-01T01:00:49.721Z,14.94
2017-07-01T01:01:49.696Z,14.92
2017-07-01T01:02:49.700Z,14.95
2017-07-01T01:03:49.703Z,14.91
2017-07-01T01:04:49.699Z,14.88
2017-07-01T01:05:49.680Z,14.88
2017-07-01T01:06:49.685Z,14.89
2017-07-01T01:07:49.679Z,14.81
2017-07-01T01:08:49.679Z,14.84
2017-07-01T01:09:49.671Z,14.8
2017-07-01T01:10:49.666Z,14.91
2017-07-01T01:11:49.657Z,14.86
2017-07-01T01:12:49.659Z,14.88
2017-07-01T01:13:49.646Z,14.84
2017-07-01T01:14:49.649Z,14.88
2017-07-01T01:15:49.630Z,14.92
2017-07-01T01:16:49.636Z,14.88
2017-07-01T01:17:49.614Z,14.92
2017-07-01T01:18:49.618Z,14.89
2017-07-01T01:19:49.628Z,14.83
2017-07-01T01:20:49.652Z,14.91
2017-07-01T01:21:49.617Z,14.88
2017-07-01T01:22:49.600Z,14.89
2017-07-01T01:23:49.599Z,14.88
2017-07-01T01:24:49.590Z,14.95
2017-07-01T01:25:49.605Z,14.92
2017-07-01T01:26:49.582Z,14.86
2017-07-01T01:27:49.280Z,14.83
2017-07-01T01:28:49.576Z,14.94
2017-07-01T01:29:49.581Z,14.86
2017-07-01T01:30:49.550Z,14.86
2017-07-01T01:31:49.249Z,14.95
2017-07-01T01:32:49.558Z,14.88
2017-07-01T01:33:49.548Z,14.84
2017-07-01T01:34:49.539Z,14.83
2017-07-01T01:35:49.545Z,14.84
2017-07-01T01:36:49.544Z,14.88
2017-07-01T01:37:49.547Z,14.96
2017-07-01T01:38:49.528Z,14.95
2017-07-01T01:39:49.521Z,14.91
2017-07-01T01:40:49.495Z,14.98
2017-07-01T01:41:49.525Z,14.98
2017-07-01T01:42:49.182Z,14.98
2017-07-01T01:43:49.507Z,14.95
2017-07-01T01:44:49.482Z,15.01
2017-07-01T01:45:49.492Z,14.96
2017-07-01T01:46:49.468Z,14.95
2017-07-01T01:47:49.476Z,14.98
2017-07-01T01:48:49.470Z,15.01
2017-07-01T01:49:49.477Z,14.96
2017-07-01T01:50:49.465Z,14.99
2017-07-01T01:51:49.473Z,15.06
2017-07-01T01:52:49.446Z,15.02
2017-07-01T01:53:49.443Z,15.02
2017-07-01T01:54:49.447Z,15.02
2017-07-01T01:55:49.446Z,15.01
2017-07-01T01:56:49.428Z,15.07
2017-07-01T01:57:49.433Z,15.06
2017-07-01T01:58:49.434Z,15.07
2017-07-01T01:59:49.439Z,15.16
2017-07-01T02:00:49.408Z,15.19
2017-07-01T02:01:49.430Z,15.23
2017-07-01T02:02:49.398Z,15.21
2017-07-01T02:03:49.410Z,15.2
2017-07-01T02:04:49.079Z,15.25
2017-07-01T02:05:49.403Z,15.27
2017-07-01T02:06:49.400Z,15.38
2017-07-01T02:07:49.378Z,15.34
2017-07-01T02:08:49.385Z,15.35
2017-07-01T02:09:49.360Z,15.36
2017-07-01T02:10:49.373Z,15.34
2017-07-01T02:11:49.064Z,15.36
2017-07-01T02:12:49.064Z,15.46
2017-07-01T02:13:49.351Z,15.47
2017-07-01T02:14:49.357Z,15.43
2017-07-01T02:15:49.340Z,15.41
2017-07-01T02:16:49.353Z,15.51
2017-07-01T02:17:49.331Z,15.54
2017-07-01T02:18:49.333Z,15.51
2017-07-01T02:19:49.328Z,15.53
2017-07-01T02:20:49.331Z,15.51
2017-07-01T02:21:49.304Z,15.56
2017-07-01T02:22:49.323Z,15.47
2017-07-01T02:23:48.999Z,15.5
2017-07-01T02:24:49.308Z,15.6
2017-07-01T02:25:49.294Z,15.6
2017-07-01T02:26:49.306Z,15.62
2017-07-01T02:27:49.294Z,15.68
2017-07-01T02:28:49.290Z,15.65
2017-07-01T02:29:49.579Z,15.69
2017-07-01T02:30:49.277Z,15.59
2017-07-01T02:31:49.271Z,15.59
2017-07-01T02:32:49.276Z,15.67
2017-07-01T02:33:48.948Z,15.75
2017-07-01T02:34:49.262Z,15.67
2017-07-01T02:35:49.265Z,15.64
2017-07-01T02:36:48.945Z,15.62
2017-07-01T02:37:49.248Z,15.59
2017-07-01T02:38:49.249Z,15.72
2017-07-01T02:39:48.935Z,15.57
2017-07-01T02:40:48.917Z,15.65
2017-07-01T02:41:49.221Z,15.67
2017-07-01T02:42:49.229Z,15.64
2017-07-01T02:43:49.221Z,15.64
2017-07-01T02:44:49.227Z,15.67
2017-07-01T02:45:49.242Z,15.75
2017-07-01T02:46:49.206Z,15.62
2017-07-01T02:47:49.208Z,15.75
2017-07-01T02:48:49.184Z,15.75
2017-07-01T02:49:49.202Z,15.75
2017-07-01T02:50:48.879Z,15.72
2017-07-01T02:51:49.182Z,15.75
2017-07-01T02:52:49.167Z,15.8
2017-07-01T02:53:49.184Z,15.71
2017-07-01T02:54:49.176Z,15.72
2017-07-01T02:55:49.165Z,15.75
2017-07-01T02:56:49.141Z,15.75
2017-07-01T02:57:49.158Z,15.74
2017-07-01T02:58:49.156Z,15.78
2017-07-01T02:59:49.147Z,15.83
2017-07-01T03:00:49.191Z,15.84
2017-07-01T03:01:48.814Z,15.83
2017-07-01T03:02:49.172Z,15.87
2017-07-01T03:03:49.116Z,15.83
2017-07-01T03:04:49.137Z,15.87
2017-07-01T03:05:49.116Z,15.82
2017-07-01T03:06:49.128Z,15.87
2017-07-01T03:07:48.802Z,15.87
2017-07-01T03:08:49.110Z,15.9
2017-07-01T03:09:49.100Z,15.82
2017-07-01T03:10:49.089Z,15.83
2017-07-01T03:11:49.087Z,15.9
2017-07-01T03:12:49.100Z,15.89
2017-07-01T03:13:49.076Z,15.89
2017-07-01T03:14:48.772Z,15.86
2017-07-01T03:15:49.074Z,15.96
2017-07-01T03:16:49.079Z,15.94
2017-07-01T03:17:49.060Z,15.92
2017-07-01T03:18:49.070Z,15.92
2017-07-01T03:19:49.051Z,15.9
2017-07-01T03:20:49.058Z,15.96
2017-07-01T03:21:49.038Z,16
2017-07-01T03:22:49.063Z,15.97
2017-07-01T03:23:49.035Z,16.01
2017-07-01T03:24:49.032Z,16.02
2017-07-01T03:25:49.013Z,16
2017-07-01T03:26:49.017Z,16.09
2017-07-01T03:27:49.020Z,15.97
2017-07-01T03:28:49.024Z,15.92
2017-07-01T03:29:49.020Z,16.07
2017-07-01T03:30:48.998Z,16.02
2017-07-01T03:31:49.001Z,16.01
2017-07-01T03:32:48.989Z,16.02
2017-07-01T03:33:49.006Z,16.01
2017-07-01T03:34:48.981Z,16.05
2017-07-01T03:35:48.682Z,15.97
2017-07-01T03:36:48.657Z,16.04
2017-07-01T03:37:48.678Z,16.14
2017-07-01T03:38:48.961Z,16.07
2017-07-01T03:39:48.980Z,16.08
2017-07-01T03:40:48.968Z,16.12
2017-07-01T03:41:48.952Z,16.17
2017-07-01T03:42:48.646Z,16.11
2017-07-01T03:43:48.957Z,16.08
2017-07-01T03:44:48.958Z,16.07
2017-07-01T03:45:48.951Z,16.23
2017-07-01T03:46:48.919Z,16.15
2017-07-01T03:47:48.922Z,16.27
2017-07-01T03:48:48.919Z,16.2
2017-07-01T03:49:48.617Z,16.24
2017-07-01T03:50:48.920Z,16.33
2017-07-01T03:51:48.928Z,16.35
2017-07-01T03:52:48.904Z,16.35
2017-07-01T03:53:48.917Z,16.41
2017-07-01T03:54:48.889Z,16.42
2017-07-01T03:55:48.585Z,16.43
2017-07-01T03:56:48.883Z,16.5
2017-07-01T03:57:48.903Z,16.48
2017-07-01T03:58:48.884Z,16.52
2017-07-01T03:59:48.875Z,16.66
2017-07-01T04:00:48.866Z,16.58
2017-07-01T04:01:48.869Z,16.57
2017-07-01T04:02:48.877Z,16.64
2017-07-01T04:03:48.863Z,16.64
2017-07-01T04:04:48.850Z,16.73
2017-07-01T04:05:48.867Z,16.73
2017-07-01T04:06:48.847Z,16.7
2017-07-01T04:07:48.859Z,16.78
2017-07-01T04:08:48.826Z,16.78
2017-07-01T04:09:48.843Z,16.91
2017-07-01T04:10:48.828Z,16.81
2017-07-01T04:11:48.838Z,16.91
2017-07-01T04:12:48.819Z,16.89
2017-07-01T04:13:48.834Z,16.93
2017-07-01T04:14:48.825Z,16.98
2017-07-01T04:15:48.822Z,16.93
2017-07-01T04:16:48.805Z,16.94
2017-07-01T04:17:48.820Z,16.97
2017-07-01T04:18:48.789Z,16.94
2017-07-01T04:19:48.806Z,16.96
2017-07-01T04:20:48.790Z,17.06
2017-07-01T04:21:48.797Z,17
2017-07-01T04:22:48.781Z,17.03
2017-07-01T04:23:48.805Z,17.06
2017-07-01T04:24:48.779Z,17.07
2017-07-01T04:25:48.789Z,17.07
2017-07-01T04:26:48.769Z,17.04
2017-07-01T04:27:48.769Z,17.07
2017-07-01T04:28:48.754Z,17.14
2017-07-01T04:29:48.464Z,17.14
2017-07-01T04:30:48.756Z,17.04
2017-07-01T04:31:48.758Z,17.15
2017-07-01T04:32:48.750Z,17.08
2017-07-01T04:33:48.759Z,17.12
2017-07-01T04:34:48.748Z,17.12
2017-07-01T04:35:48.737Z,17.14
2017-07-01T04:36:48.727Z,17.12
2017-07-01T04:37:48.732Z,17.22
2017-07-01T04:38:48.723Z,17.31
2017-07-01T04:39:48.738Z,17.3
2017-07-01T04:40:48.701Z,17.34
2017-07-01T04:41:48.722Z,17.44
2017-07-01T04:42:48.717Z,17.49
2017-07-01T04:43:48.758Z,17.49
2017-07-01T04:44:48.709Z,17.54
2017-07-01T04:45:48.712Z,17.56
2017-07-01T04:46:48.704Z,17.66
2017-07-01T04:47:48.690Z,17.77
2017-07-01T04:48:48.681Z,17.82
2017-07-01T04:49:48.687Z,17.93
2017-07-01T04:50:48.696Z,17.84
2017-07-01T04:51:48.684Z,18.02
2017-07-01T04:52:48.377Z,18.12
2017-07-01T04:53:48.669Z,18.21
2017-07-01T04:54:48.370Z,18.33
2017-07-01T04:55:48.670Z,18.36
2017-07-01T04:56:48.668Z,18.42
2017-07-01T04:57:48.673Z,18.54
2017-07-01T04:58:48.666Z,18.62
2017-07-01T04:59:48.653Z,18.66
2017-07-01T05:00:48.657Z,18.65
2017-07-01T05:01:48.665Z,18.78
2017-07-01T05:02:48.658Z,18.81
2017-07-01T05:03:48.650Z,18.84
2017-07-01T05:04:48.649Z,18.82
2017-07-01T05:05:48.641Z,18.99
2017-07-01T05:06:48.654Z,18.94
2017-07-01T05:07:48.643Z,19.02
2017-07-01T05:08:48.643Z,19.08
2017-07-01T05:09:48.622Z,19.1
2017-07-01T05:10:48.642Z,19.14
2017-07-01T05:11:48.609Z,19.37
2017-07-01T05:12:48.626Z,19.33
2017-07-01T05:13:48.620Z,19.32
2017-07-01T05:14:48.630Z,19.5
2017-07-01T05:15:48.619Z,19.63
2017-07-01T05:16:48.626Z,19.8
2017-07-01T05:17:48.597Z,19.87
2017-07-01T05:18:48.596Z,20.18
2017-07-01T05:19:48.608Z,20.57
2017-07-01T05:20:48.626Z,21.07
2017-07-01T05:21:48.611Z,21.49
2017-07-01T05:22:48.613Z,21.96
2017-07-01T05:23:48.608Z,22.3
2017-07-01T05:24:48.615Z,22.62
2017-07-01T05:25:48.597Z,22.85
2017-07-01T05:26:48.609Z,23.05
2017-07-01T05:27:48.611Z,23.07
2017-07-01T05:28:48.618Z,23.2
2017-07-01T05:29:48.305Z,23.17
2017-07-01T05:30:48.622Z,23.39
2017-07-01T05:31:48.619Z,23.39
2017-07-01T05:32:48.622Z,23.48
2017-07-01T05:33:48.607Z,23.57
2017-07-01T05:34:48.611Z,23.6
2017-07-01T05:35:48.628Z,23.61
2017-07-01T05:36:48.638Z,23.6
2017-07-01T05:37:48.637Z,23.61
2017-07-01T05:38:48.319Z,23.63
2017-07-01T05:39:48.620Z,23.8
2017-07-01T05:40:48.628Z,23.85
2017-07-01T05:41:48.652Z,23.97
2017-07-01T05:42:48.640Z,24.12
2017-07-01T05:43:48.655Z,24.16
2017-07-01T05:44:48.635Z,24.28
2017-07-01T05:45:48.650Z,24.49
2017-07-01T05:46:48.673Z,24.47
2017-07-01T05:47:48.646Z,24.67
2017-07-01T05:48:48.660Z,24.8
2017-07-01T05:49:48.647Z,24.91
2017-07-01T05:50:48.694Z,25.05
2017-07-01T05:51:48.652Z,24.95
2017-07-01T05:52:48.674Z,25.03
2017-07-01T05:53:48.680Z,25.09
2017-07-01T05:54:48.661Z,25.15
2017-07-01T05:55:48.687Z,25.08
2017-07-01T05:56:48.669Z,25.09
2017-07-01T05:57:48.696Z,25.18
2017-07-01T05:58:48.693Z,25.14
2017-07-01T05:59:48.703Z,25.05
2017-07-01T06:00:48.692Z,24.99
2017-07-01T06:01:48.702Z,24.98
2017-07-01T06:02:48.703Z,24.8
2017-07-01T06:03:48.710Z,24.87
2017-07-01T06:04:48.699Z,24.76
2017-07-01T06:05:48.717Z,24.71
2017-07-01T06:06:48.421Z,24.73
2017-07-01T06:07:48.416Z,24.58
2017-07-01T06:08:48.725Z,24.65
2017-07-01T06:09:48.718Z,24.52
2017-07-01T06:10:48.770Z,24.46
2017-07-01T06:11:49.116Z,24.34
2017-07-01T06:12:48.728Z,24.37
2017-07-01T06:13:48.757Z,24.3
2017-07-01T06:14:48.733Z,24.21
2017-07-01T06:15:48.748Z,24.12
2017-07-01T06:16:48.731Z,24.18
2017-07-01T06:17:48.759Z,24.08
2017-07-01T06:18:48.741Z,24.1
2017-07-01T06:19:48.748Z,24.03
2017-07-01T06:20:48.734Z,23.95
2017-07-01T06:21:48.760Z,23.8
2017-07-01T06:22:48.765Z,23.8
2017-07-01T06:23:48.758Z,23.79
2017-07-01T06:24:48.781Z,23.8
2017-07-01T06:25:48.458Z,23.85
2017-07-01T06:26:48.782Z,23.85
2017-07-01T06:27:48.767Z,23.95
2017-07-01T06:28:48.768Z,24.12
2017-07-01T06:29:48.762Z,24.08
2017-07-01T06:30:48.777Z,24.24
2017-07-01T06:31:48.767Z,24.27
2017-07-01T06:32:48.785Z,24.45
2017-07-01T06:33:48.456Z,24.47
2017-07-01T06:34:49.037Z,24.62
2017-07-01T06:35:48.773Z,24.71
2017-07-01T06:36:48.798Z,24.71
2017-07-01T06:37:48.783Z,24.65
2017-07-01T06:38:48.793Z,24.62
2017-07-01T06:39:48.789Z,24.68
2017-07-01T06:40:48.781Z,24.62
2017-07-01T06:41:48.791Z,24.61
2017-07-01T06:42:48.796Z,24.6
2017-07-01T06:43:48.808Z,24.64
2017-07-01T06:44:48.808Z,24.5
2017-07-01T06:45:48.791Z,24.6
2017-07-01T06:46:48.820Z,24.62
2017-07-01T06:47:48.827Z,24.61
2017-07-01T06:48:48.822Z,24.65
2017-07-01T06:49:48.817Z,24.71
2017-07-01T06:50:48.828Z,24.69
2017-07-01T06:51:48.827Z,24.68
2017-07-01T06:52:48.832Z,24.62
2017-07-01T06:53:48.820Z,24.62
2017-07-01T06:54:48.820Z,24.47
2017-07-01T06:55:48.836Z,24.35
2017-07-01T06:56:48.835Z,24.27
2017-07-01T06:57:48.847Z,24.08
2017-07-01T06:58:48.821Z,24.06
2017-07-01T06:59:48.844Z,23.98
2017-07-01T07:00:48.834Z,24
2017-07-01T07:01:48.861Z,23.95
2017-07-01T07:02:48.530Z,23.98
2017-07-01T07:03:48.849Z,24.05
2017-07-01T07:04:48.868Z,24.13
2017-07-01T07:05:48.849Z,24.15
2017-07-01T07:06:48.862Z,24.27
2017-07-01T07:07:48.847Z,24.31
2017-07-01T07:08:48.858Z,24.34
2017-07-01T07:09:48.865Z,24.47
2017-07-01T07:10:48.861Z,24.53
2017-07-01T07:11:48.865Z,24.47
2017-07-01T07:12:48.878Z,24.62
2017-07-01T07:13:48.873Z,24.61
2017-07-01T07:14:48.864Z,24.62
2017-07-01T07:15:48.878Z,24.62
2017-07-01T07:16:48.862Z,24.57
2017-07-01T07:17:48.884Z,24.47
2017-07-01T07:18:48.875Z,24.45
2017-07-01T07:19:48.885Z,24.31
2017-07-01T07:20:48.876Z,24.34
2017-07-01T07:21:48.892Z,24.31
2017-07-01T07:22:48.876Z,24.22
2017-07-01T07:23:48.888Z,24.18
2017-07-01T07:24:48.900Z,24.22
2017-07-01T07:25:48.899Z,24.18
2017-07-01T07:26:48.940Z,24.18
2017-07-01T07:27:48.895Z,24.22
2017-07-01T07:28:48.883Z,24.22
2017-07-01T07:29:48.912Z,24.2
2017-07-01T07:30:48.899Z,24.2
2017-07-01T07:31:48.905Z,24.18
2017-07-01T07:32:48.896Z,24.12
2017-07-01T07:33:48.922Z,24.08
2017-07-01T07:34:48.899Z,23.94
2017-07-01T07:35:48.930Z,23.91
2017-07-01T07:36:48.915Z,23.87
2017-07-01T07:37:48.925Z,23.91
2017-07-01T07:38:48.918Z,23.83
2017-07-01T07:39:48.924Z,23.93
2017-07-01T07:40:48.915Z,23.79
2017-07-01T07:41:48.940Z,23.79
2017-07-01T07:42:48.915Z,23.76
2017-07-01T07:43:48.613Z,23.63
2017-07-01T07:44:48.937Z,23.57
2017-07-01T07:45:48.940Z,23.54
2017-07-01T07:46:48.933Z,23.46
2017-07-01T07:47:48.932Z,23.42
2017-07-01T07:48:48.626Z,23.46
2017-07-01T07:49:48.948Z,23.42
2017-07-01T07:50:48.632Z,23.38
2017-07-01T07:51:48.954Z,23.35
2017-07-01T07:52:48.939Z,23.2
2017-07-01T07:53:48.952Z,23.2
2017-07-01T07:54:48.948Z,23.22
2017-07-01T07:55:48.936Z,23.19
2017-07-01T07:56:48.964Z,23.17
2017-07-01T07:57:48.940Z,23.17
2017-07-01T07:58:48.940Z,23.23
2017-07-01T07:59:49.245Z,23.27
2017-07-01T08:00:48.951Z,23.38
2017-07-01T08:01:48.963Z,23.48
2017-07-01T08:02:48.949Z,23.51
2017-07-01T08:03:48.951Z,23.54
2017-07-01T08:04:48.959Z,23.6
2017-07-01T08:05:48.970Z,23.66
2017-07-01T08:06:48.944Z,23.7
2017-07-01T08:07:48.958Z,23.76
2017-07-01T08:08:48.960Z,23.8
2017-07-01T08:09:48.970Z,23.91
2017-07-01T08:10:48.952Z,24.02
2017-07-01T08:11:48.970Z,24.09
2017-07-01T08:12:48.960Z,24.2
2017-07-01T08:13:48.971Z,24.2
2017-07-01T08:14:48.971Z,24.18
2017-07-01T08:15:48.971Z,24.21
2017-07-01T08:16:48.971Z,24.25
2017-07-01T08:17:48.661Z,24.24
2017-07-01T08:18:48.673Z,24.27
2017-07-01T08:19:48.971Z,24.21
2017-07-01T08:20:48.965Z,24.18
2017-07-01T08:21:48.987Z,24.27
2017-07-01T08:22:48.981Z,24.27
2017-07-01T08:23:48.989Z,24.34
2017-07-01T08:24:48.989Z,24.37
2017-07-01T08:25:49.001Z,24.31
2017-07-01T08:26:48.973Z,24.31
2017-07-01T08:27:48.686Z,24.27
2017-07-01T08:28:48.985Z,24.2
2017-07-01T08:29:49.008Z,24.13
2017-07-01T08:30:48.690Z,24.1
2017-07-01T08:31:48.996Z,24.03
2017-07-01T08:32:48.681Z,23.97
2017-07-01T08:33:48.987Z,23.91
2017-07-01T08:34:49.019Z,23.84
2017-07-01T08:35:48.998Z,23.85
2017-07-01T08:36:49.011Z,23.8
2017-07-01T08:37:49.006Z,23.83
2017-07-01T08:38:49.018Z,23.83
2017-07-01T08:39:48.990Z,23.8
2017-07-01T08:40:49.029Z,23.9
2017-07-01T08:41:49.042Z,23.93
2017-07-01T08:42:49.033Z,23.98
2017-07-01T08:43:49.012Z,24.02
2017-07-01T08:44:49.023Z,23.98
2017-07-01T08:45:49.007Z,23.9
2017-07-01T08:46:48.715Z,24.16
2017-07-01T08:47:49.029Z,24.18
2017-07-01T08:48:49.012Z,24.16
2017-07-01T08:49:49.023Z,24.22
2017-07-01T08:50:49.036Z,24.25
2017-07-01T08:51:49.028Z,24.45
2017-07-01T08:52:49.033Z,24.47
2017-07-01T08:53:49.024Z,24.52
2017-07-01T08:54:48.723Z,24.57
2017-07-01T08:55:49.032Z,24.42
2017-07-01T08:56:48.737Z,24.49
2017-07-01T08:57:48.720Z,24.43
2017-07-01T08:58:49.047Z,24.49
2017-07-01T08:59:48.723Z,24.52
2017-07-01T09:00:49.045Z,24.61
2017-07-01T09:01:49.044Z,24.65
2017-07-01T09:02:49.046Z,24.78
2017-07-01T09:03:49.045Z,24.69
2017-07-01T09:04:49.060Z,24.8
2017-07-01T09:05:48.751Z,24.69
2017-07-01T09:06:49.040Z,24.83
2017-07-01T09:07:49.066Z,24.85
2017-07-01T09:08:48.439Z,24.84
2017-07-01T09:09:49.079Z,24.83
2017-07-01T09:10:49.071Z,24.76
2017-07-01T09:11:49.061Z,24.78
2017-07-01T09:12:48.772Z,24.84
2017-07-01T09:13:49.063Z,24.83
2017-07-01T09:14:49.082Z,24.91
2017-07-01T09:15:49.072Z,24.98
2017-07-01T09:16:49.080Z,25.1
2017-07-01T09:17:49.069Z,25.17
2017-07-01T09:18:49.078Z,25.36
2017-07-01T09:19:49.117Z,25.35
2017-07-01T09:20:49.097Z,25.55
2017-07-01T09:21:49.106Z,25.75
2017-07-01T09:22:49.094Z,25.87
2017-07-01T09:23:49.088Z,25.99
2017-07-01T09:24:49.099Z,26.18
2017-07-01T09:25:49.096Z,26.4
2017-07-01T09:26:49.103Z,26.65
2017-07-01T09:27:49.090Z,26.72
2017-07-01T09:28:49.124Z,26.81
2017-07-01T09:29:49.109Z,26.91
2017-07-01T09:30:49.137Z,26.95
2017-07-01T09:31:49.121Z,27.02
2017-07-01T09:32:49.140Z,27.25
2017-07-01T09:33:49.140Z,27.29
2017-07-01T09:34:49.135Z,27.29
2017-07-01T09:35:49.149Z,27.4
2017-07-01T09:36:49.162Z,27.46
2017-07-01T09:37:49.139Z,27.57
2017-07-01T09:38:49.169Z,27.75
2017-07-01T09:39:49.160Z,27.81
2017-07-01T09:40:49.186Z,28.03
2017-07-01T09:41:49.183Z,28.11
2017-07-01T09:42:49.196Z,28.09
2017-07-01T09:43:49.173Z,28.18
2017-07-01T09:44:49.241Z,28.27
2017-07-01T09:45:49.185Z,28.36
2017-07-01T09:46:49.219Z,28.37
2017-07-01T09:47:49.219Z,28.39
2017-07-01T09:48:49.235Z,28.56
2017-07-01T09:49:49.223Z,28.68
2017-07-01T09:50:49.240Z,28.71
2017-07-01T09:51:49.254Z,28.92
2017-07-01T09:52:49.263Z,28.83
2017-07-01T09:53:49.266Z,28.73
2017-07-01T09:54:49.256Z,28.71
2017-07-01T09:55:49.264Z,28.76
2017-07-01T09:56:49.266Z,28.77
2017-07-01T09:57:49.290Z,28.88
2017-07-01T09:58:48.979Z,28.9
2017-07-01T09:59:49.305Z,28.8
2017-07-01T10:00:49.304Z,28.9
2017-07-01T10:01:49.327Z,28.88
2017-07-01T10:02:49.314Z,28.86
2017-07-01T10:03:49.331Z,28.95
2017-07-01T10:04:49.348Z,28.9
2017-07-01T10:05:49.329Z,28.88
2017-07-01T10:06:49.353Z,29.02
2017-07-01T10:07:49.350Z,29.08
2017-07-01T10:08:49.362Z,29.24
2017-07-01T10:09:49.374Z,29.27
2017-07-01T10:10:49.365Z,29.37
2017-07-01T10:11:49.376Z,29.41
2017-07-01T10:12:49.382Z,29.55
2017-07-01T10:13:49.406Z,29.65
2017-07-01T10:14:49.388Z,29.74
2017-07-01T10:15:49.418Z,29.92
2017-07-01T10:16:49.399Z,30
2017-07-01T10:17:49.430Z,30.1
2017-07-01T10:18:49.418Z,30.1
2017-07-01T10:19:49.440Z,30.08
2017-07-01T10:20:49.433Z,30.24
2017-07-01T10:21:49.453Z,30.19
2017-07-01T10:22:49.465Z,30.07
2017-07-01T10:23:49.467Z,30.08
2017-07-01T10:24:49.465Z,29.97
2017-07-01T10:25:49.461Z,29.63
2017-07-01T10:26:49.491Z,29.53
2017-07-01T10:27:49.494Z,29.31
2017-07-01T10:28:49.485Z,28.98
2017-07-01T10:29:49.515Z,28.73
2017-07-01T10:30:49.504Z,28.44
2017-07-01T10:31:49.530Z,28.3
2017-07-01T10:32:49.215Z,27.97
2017-07-01T10:33:49.542Z,27.75
2017-07-01T10:34:49.537Z,27.4
2017-07-01T10:35:49.540Z,27.14
2017-07-01T10:36:49.542Z,26.82
2017-07-01T10:37:49.567Z,26.6
2017-07-01T10:38:49.562Z,26.26
2017-07-01T10:39:49.564Z,25.97
2017-07-01T10:40:49.561Z,25.79
2017-07-01T10:41:49.555Z,25.54
2017-07-01T10:42:49.583Z,25.32
2017-07-01T10:43:49.582Z,24.96
2017-07-01T10:44:49.591Z,24.64
2017-07-01T10:45:49.589Z,24.37
2017-07-01T10:46:49.595Z,24.12
2017-07-01T10:47:49.589Z,23.79
2017-07-01T10:48:49.604Z,23.47
2017-07-01T10:49:49.602Z,23.23
2017-07-01T10:50:49.608Z,22.88
2017-07-01T10:51:49.611Z,22.62
2017-07-01T10:52:49.622Z,22.4
2017-07-01T10:53:49.594Z,22.03
2017-07-01T10:54:49.621Z,21.79
2017-07-01T10:55:49.605Z,21.59
2017-07-01T10:56:49.306Z,21.34
2017-07-01T10:57:49.599Z,21.22
2017-07-01T10:58:49.623Z,20.99
2017-07-01T10:59:49.621Z,20.82
2017-07-01T11:00:49.320Z,20.66
2017-07-01T11:01:49.611Z,20.58
2017-07-01T11:02:49.630Z,20.55
2017-07-01T11:03:49.610Z,20.54
2017-07-01T11:04:49.631Z,20.58
2017-07-01T11:05:49.600Z,20.57
2017-07-01T11:06:49.622Z,20.58
2017-07-01T11:07:49.310Z,20.66
2017-07-01T11:08:49.601Z,20.62
2017-07-01T11:09:49.878Z,20.72
2017-07-01T11:10:49.618Z,20.76
2017-07-01T11:11:49.604Z,20.85
2017-07-01T11:12:49.598Z,21.01
2017-07-01T11:13:49.601Z,21.1
2017-07-01T11:14:49.608Z,21.17
2017-07-01T11:15:49.608Z,21.29
2017-07-01T11:16:49.609Z,21.43
2017-07-01T11:17:49.606Z,21.34
2017-07-01T11:18:49.311Z,21.35
2017-07-01T11:19:49.617Z,21.42
2017-07-01T11:20:49.609Z,21.44
2017-07-01T11:21:49.617Z,21.43
2017-07-01T11:22:49.604Z,21.54
2017-07-01T11:23:49.612Z,21.58
2017-07-01T11:24:49.596Z,21.59
2017-07-01T11:25:49.613Z,21.56
2017-07-01T11:26:49.622Z,21.69
2017-07-01T11:27:49.601Z,21.74
2017-07-01T11:28:49.605Z,21.88
2017-07-01T11:29:49.603Z,21.92
2017-07-01T11:30:49.614Z,21.94
2017-07-01T11:31:49.620Z,22.07
2017-07-01T11:32:49.613Z,22.22
2017-07-01T11:33:49.605Z,22.35
2017-07-01T11:34:49.639Z,22.47
2017-07-01T11:35:49.606Z,22.61
2017-07-01T11:36:49.612Z,22.76
2017-07-01T11:37:49.602Z,22.85
2017-07-01T11:38:49.613Z,22.94
2017-07-01T11:39:49.602Z,23.04
2017-07-01T11:40:49.628Z,23.31
2017-07-01T11:41:49.602Z,23.53
2017-07-01T11:42:49.619Z,23.72
2017-07-01T11:43:49.620Z,23.98
2017-07-01T11:44:49.629Z,24.15
2017-07-01T11:45:49.603Z,24.32
2017-07-01T11:46:49.622Z,24.53
2017-07-01T11:47:49.620Z,24.62
2017-07-01T11:48:49.638Z,24.83
2017-07-01T11:49:49.616Z,24.91
2017-07-01T11:50:49.639Z,25.02
2017-07-01T11:51:49.627Z,25.1
2017-07-01T11:52:49.029Z,25.15
2017-07-01T11:53:49.641Z,25.33
2017-07-01T11:54:49.643Z,25.42
2017-07-01T11:55:49.653Z,25.58
2017-07-01T11:56:49.659Z,25.64
2017-07-01T11:57:49.641Z,25.72
2017-07-01T11:58:49.657Z,25.88
2017-07-01T11:59:49.665Z,25.95
2017-07-01T12:00:49.684Z,26.1
2017-07-01T12:01:49.668Z,26.26
2017-07-01T12:02:49.656Z,26.44
2017-07-01T12:03:49.660Z,26.55
2017-07-01T12:04:49.676Z,26.62
2017-07-01T12:05:49.695Z,26.63
2017-07-01T12:06:49.673Z,26.72
2017-07-01T12:07:49.698Z,26.76
2017-07-01T12:08:49.685Z,26.82
2017-07-01T12:09:49.701Z,26.82
2017-07-01T12:10:49.391Z,27
2017-07-01T12:11:49.740Z,27.12
2017-07-01T12:12:49.717Z,27.12
2017-07-01T12:13:49.394Z,27.32
2017-07-01T12:14:49.705Z,27.54
2017-07-01T12:15:49.722Z,27.59
2017-07-01T12:16:49.423Z,27.79
2017-07-01T12:17:49.749Z,27.72
2017-07-01T12:18:49.732Z,27.81
2017-07-01T12:19:49.427Z,27.88
2017-07-01T12:20:49.737Z,27.9
2017-07-01T12:21:49.758Z,28.02
2017-07-01T12:22:49.740Z,28.03
2017-07-01T12:23:49.763Z,28.11
2017-07-01T12:24:49.760Z,28.22
2017-07-01T12:25:49.780Z,28.41
2017-07-01T12:26:49.782Z,28.4
2017-07-01T12:27:49.790Z,28.41
2017-07-01T12:28:49.768Z,28.54
2017-07-01T12:29:49.797Z,28.64
2017-07-01T12:30:49.815Z,28.66
2017-07-01T12:31:49.499Z,28.85
2017-07-01T12:32:49.811Z,28.8
2017-07-01T12:33:49.814Z,28.81
2017-07-01T12:34:49.822Z,28.67
2017-07-01T12:35:49.823Z,28.54
2017-07-01T12:36:49.825Z,28.39
2017-07-01T12:37:49.842Z,28.29
2017-07-01T12:38:49.852Z,28.24
2017-07-01T12:39:49.866Z,28.27
2017-07-01T12:40:49.854Z,28.21
2017-07-01T12:41:49.863Z,28.37
2017-07-01T12:42:49.850Z,28.37
2017-07-01T12:43:49.879Z,28.46
2017-07-01T12:44:49.876Z,28.41
2017-07-01T12:45:49.891Z,28.37
2017-07-01T12:46:50.262Z,28.29
2017-07-01T12:47:49.901Z,28.18
2017-07-01T12:48:49.890Z,28.14
2017-07-01T12:49:49.906Z,27.94
2017-07-01T12:50:49.918Z,27.84
2017-07-01T12:51:49.921Z,27.69
2017-07-01T12:52:49.926Z,27.62
2017-07-01T12:53:49.914Z,27.49
2017-07-01T12:54:49.944Z,27.28
2017-07-01T12:55:49.926Z,27.18